sensor_id;sensor_type;location;lat;lon;timestamp;P1;durP1;ratioP1;P2;durP2;ratioP2
9918;SDS011;4998;51.024;13.828;2023-05-07T00:01:38;10.73;;;9.53;;
9918;SDS011;4998;51.024;13.828;2023-05-07T00:04:05;10.97;;;8.60;;
9918;SDS011;4998;51.024;13.828;2023-05-07T00:06:34;10.07;;;8.07;;
9918;SDS011;4998;51.024;13.828;2023-05-07T00:09:01;10.90;;;9.40;;
9918;SDS011;4998;51.024;13.828;2023-05-07T00:11:29;10.17;;;8.10;;
9918;SDS011;4998;51.024;13.828;2023-05-07T00:13:56;10.13;;;8.90;;
9918;SDS011;4998;51.024;13.828;2023-05-07T00:16:23;9.03;;;7.90;;
9918;SDS011;4998;51.024;13.828;2023-05-07T00:18:50;10.97;;;9.00;;
9918;SDS011;4998;51.024;13.828;2023-05-07T00:21:18;10.73;;;7.90;;
9918;SDS011;4998;51.024;13.828;2023-05-07T00:23:48;10.03;;;8.40;;
9918;SDS011;4998;51.024;13.828;2023-05-07T00:26:15;10.53;;;8.30;;
9918;SDS011;4998;51.024;13.828;2023-05-07T00:28:42;11.80;;;9.17;;
9918;SDS011;4998;51.024;13.828;2023-05-07T00:31:09;11.00;;;9.43;;
9918;SDS011;4998;51.024;13.828;2023-05-07T00:33:36;13.80;;;10.43;;
9918;SDS011;4998;51.024;13.828;2023-05-07T00:36:04;10.57;;;9.40;;
9918;SDS011;4998;51.024;13.828;2023-05-07T00:38:31;12.10;;;9.40;;
9918;SDS011;4998;51.024;13.828;2023-05-07T00:40:59;12.77;;;9.70;;
9918;SDS011;4998;51.024;13.828;2023-05-07T00:43:27;12.37;;;10.10;;
9918;SDS011;4998;51.024;13.828;2023-05-07T00:45:54;14.00;;;9.80;;
9918;SDS011;4998;51.024;13.828;2023-05-07T00:48:21;11.93;;;9.90;;
9918;SDS011;4998;51.024;13.828;2023-05-07T00:50:49;14.47;;;10.67;;
9918;SDS011;4998;51.024;13.828;2023-05-07T00:53:16;14.93;;;10.83;;
9918;SDS011;4998;51.024;13.828;2023-05-07T00:55:43;14.47;;;10.77;;
9918;SDS011;4998;51.024;13.828;2023-05-07T00:58:12;15.50;;;11.40;;
9918;SDS011;4998;51.024;13.828;2023-05-07T01:00:39;11.97;;;10.07;;
9918;SDS011;4998;51.024;13.828;2023-05-07T01:03:06;15.33;;;10.67;;
9918;SDS011;4998;51.024;13.828;2023-05-07T01:05:33;15.53;;;11.13;;
9918;SDS011;4998;51.024;13.828;2023-05-07T01:08:01;15.40;;;10.87;;
9918;SDS011;4998;51.024;13.828;2023-05-07T01:10:30;13.10;;;10.27;;
9918;SDS011;4998;51.024;13.828;2023-05-07T01:12:57;13.97;;;10.53;;
9918;SDS011;4998;51.024;13.828;2023-05-07T01:15:26;13.93;;;9.90;;
9918;SDS011;4998;51.024;13.828;2023-05-07T01:17:56;14.10;;;10.87;;
9918;SDS011;4998;51.024;13.828;2023-05-07T01:20:23;13.80;;;10.00;;
9918;SDS011;4998;51.024;13.828;2023-05-07T01:22:52;11.70;;;10.17;;
9918;SDS011;4998;51.024;13.828;2023-05-07T01:25:20;10.27;;;9.00;;
9918;SDS011;4998;51.024;13.828;2023-05-07T01:27:48;12.40;;;10.00;;
9918;SDS011;4998;51.024;13.828;2023-05-07T01:30:15;13.13;;;10.20;;
9918;SDS011;4998;51.024;13.828;2023-05-07T01:32:45;13.07;;;10.50;;
9918;SDS011;4998;51.024;13.828;2023-05-07T01:35:18;13.23;;;10.30;;
9918;SDS011;4998;51.024;13.828;2023-05-07T01:37:47;14.57;;;10.30;;
9918;SDS011;4998;51.024;13.828;2023-05-07T01:40:16;13.13;;;11.10;;
9918;SDS011;4998;51.024;13.828;2023-05-07T01:42:44;10.90;;;9.80;;
9918;SDS011;4998;51.024;13.828;2023-05-07T01:45:13;13.73;;;10.60;;
9918;SDS011;4998;51.024;13.828;2023-05-07T01:47:40;13.23;;;10.80;;
9918;SDS011;4998;51.024;13.828;2023-05-07T01:50:08;11.07;;;9.97;;
9918;SDS011;4998;51.024;13.828;2023-05-07T01:52:36;12.23;;;10.97;;
9918;SDS011;4998;51.024;13.828;2023-05-07T01:55:04;13.20;;;11.37;;
9918;SDS011;4998;51.024;13.828;2023-05-07T01:57:34;11.30;;;10.03;;
9918;SDS011;4998;51.024;13.828;2023-05-07T02:00:01;12.27;;;10.63;;
9918;SDS011;4998;51.024;13.828;2023-05-07T02:02:31;14.87;;;10.10;;
9918;SDS011;4998;51.024;13.828;2023-05-07T02:04:59;13.67;;;11.53;;
9918;SDS011;4998;51.024;13.828;2023-05-07T02:07:26;12.60;;;10.20;;
9918;SDS011;4998;51.024;13.828;2023-05-07T02:09:53;12.70;;;10.83;;
9918;SDS011;4998;51.024;13.828;2023-05-07T02:12:21;12.60;;;11.30;;
9918;SDS011;4998;51.024;13.828;2023-05-07T02:14:49;13.33;;;11.13;;
9918;SDS011;4998;51.024;13.828;2023-05-07T02:17:16;13.47;;;11.20;;
9918;SDS011;4998;51.024;13.828;2023-05-07T02:19:43;11.80;;;10.07;;
9918;SDS011;4998;51.024;13.828;2023-05-07T02:22:10;13.27;;;11.70;;
9918;SDS011;4998;51.024;13.828;2023-05-07T02:24:37;12.37;;;10.93;;
9918;SDS011;4998;51.024;13.828;2023-05-07T02:27:04;13.27;;;11.17;;
9918;SDS011;4998;51.024;13.828;2023-05-07T02:29:31;13.90;;;10.30;;
9918;SDS011;4998;51.024;13.828;2023-05-07T02:32:00;11.97;;;10.17;;
9918;SDS011;4998;51.024;13.828;2023-05-07T02:34:27;10.93;;;9.70;;
9918;SDS011;4998;51.024;13.828;2023-05-07T02:36:53;11.07;;;9.40;;
9918;SDS011;4998;51.024;13.828;2023-05-07T02:39:20;11.90;;;10.40;;
9918;SDS011;4998;51.024;13.828;2023-05-07T02:41:47;10.90;;;9.00;;
9918;SDS011;4998;51.024;13.828;2023-05-07T02:44:14;10.20;;;9.10;;
9918;SDS011;4998;51.024;13.828;2023-05-07T02:46:41;9.73;;;8.70;;
9918;SDS011;4998;51.024;13.828;2023-05-07T02:49:10;11.37;;;9.40;;
9918;SDS011;4998;51.024;13.828;2023-05-07T02:51:37;9.57;;;8.03;;
9918;SDS011;4998;51.024;13.828;2023-05-07T02:54:04;10.67;;;8.37;;
9918;SDS011;4998;51.024;13.828;2023-05-07T02:56:31;8.27;;;7.47;;
9918;SDS011;4998;51.024;13.828;2023-05-07T02:58:58;10.17;;;7.70;;
9918;SDS011;4998;51.024;13.828;2023-05-07T03:01:25;7.60;;;6.90;;
9918;SDS011;4998;51.024;13.828;2023-05-07T03:03:52;9.03;;;7.00;;
9918;SDS011;4998;51.024;13.828;2023-05-07T03:06:21;7.73;;;6.67;;
9918;SDS011;4998;51.024;13.828;2023-05-07T03:08:48;7.20;;;6.50;;
9918;SDS011;4998;51.024;13.828;2023-05-07T03:11:15;8.53;;;6.57;;
9918;SDS011;4998;51.024;13.828;2023-05-07T03:13:42;6.97;;;6.27;;
9918;SDS011;4998;51.024;13.828;2023-05-07T03:16:09;6.27;;;5.67;;
9918;SDS011;4998;51.024;13.828;2023-05-07T03:18:36;6.53;;;5.83;;
9918;SDS011;4998;51.024;13.828;2023-05-07T03:21:03;6.87;;;6.17;;
9918;SDS011;4998;51.024;13.828;2023-05-07T03:23:31;7.03;;;6.33;;
9918;SDS011;4998;51.024;13.828;2023-05-07T03:25:58;8.30;;;6.97;;
9918;SDS011;4998;51.024;13.828;2023-05-07T03:28:25;7.13;;;6.43;;
9918;SDS011;4998;51.024;13.828;2023-05-07T03:30:52;7.30;;;6.47;;
9918;SDS011;4998;51.024;13.828;2023-05-07T03:33:19;8.07;;;6.60;;
9918;SDS011;4998;51.024;13.828;2023-05-07T03:35:46;8.93;;;7.23;;
9918;SDS011;4998;51.024;13.828;2023-05-07T03:38:13;8.57;;;6.97;;
9918;SDS011;4998;51.024;13.828;2023-05-07T03:40:42;7.63;;;6.83;;
9918;SDS011;4998;51.024;13.828;2023-05-07T03:43:09;9.60;;;8.30;;
9918;SDS011;4998;51.024;13.828;2023-05-07T03:45:36;9.90;;;7.70;;
9918;SDS011;4998;51.024;13.828;2023-05-07T03:48:03;10.63;;;8.37;;
9918;SDS011;4998;51.024;13.828;2023-05-07T03:50:30;10.93;;;8.33;;
9918;SDS011;4998;51.024;13.828;2023-05-07T03:52:57;9.40;;;7.87;;
9918;SDS011;4998;51.024;13.828;2023-05-07T03:55:24;11.03;;;8.90;;
9918;SDS011;4998;51.024;13.828;2023-05-07T03:57:53;12.33;;;8.50;;
9918;SDS011;4998;51.024;13.828;2023-05-07T04:00:20;9.43;;;7.97;;
9918;SDS011;4998;51.024;13.828;2023-05-07T04:02:47;9.47;;;8.40;;
9918;SDS011;4998;51.024;13.828;2023-05-07T04:05:14;9.43;;;7.50;;
9918;SDS011;4998;51.024;13.828;2023-05-07T04:07:41;10.17;;;8.30;;
9918;SDS011;4998;51.024;13.828;2023-05-07T04:10:09;8.97;;;8.07;;
9918;SDS011;4998;51.024;13.828;2023-05-07T04:12:36;10.70;;;8.20;;
9918;SDS011;4998;51.024;13.828;2023-05-07T04:15:05;11.27;;;8.97;;
9918;SDS011;4998;51.024;13.828;2023-05-07T04:17:33;11.80;;;8.27;;
9918;SDS011;4998;51.024;13.828;2023-05-07T04:20:00;11.00;;;8.60;;
9918;SDS011;4998;51.024;13.828;2023-05-07T04:22:27;9.90;;;8.10;;
9918;SDS011;4998;51.024;13.828;2023-05-07T04:24:54;10.50;;;8.10;;
9918;SDS011;4998;51.024;13.828;2023-05-07T04:27:21;10.53;;;8.70;;
9918;SDS011;4998;51.024;13.828;2023-05-07T04:29:48;10.53;;;8.17;;
9918;SDS011;4998;51.024;13.828;2023-05-07T04:32:16;9.03;;;8.03;;
9918;SDS011;4998;51.024;13.828;2023-05-07T04:34:43;10.43;;;8.30;;
9918;SDS011;4998;51.024;13.828;2023-05-07T04:37:10;10.30;;;7.97;;
9918;SDS011;4998;51.024;13.828;2023-05-07T04:39:37;10.40;;;8.40;;
9918;SDS011;4998;51.024;13.828;2023-05-07T04:42:04;9.20;;;7.90;;
9918;SDS011;4998;51.024;13.828;2023-05-07T04:44:33;9.93;;;8.07;;
9918;SDS011;4998;51.024;13.828;2023-05-07T04:47:02;9.63;;;8.17;;
9918;SDS011;4998;51.024;13.828;2023-05-07T04:49:30;10.13;;;8.23;;
9918;SDS011;4998;51.024;13.828;2023-05-07T04:51:57;10.37;;;8.20;;
9918;SDS011;4998;51.024;13.828;2023-05-07T04:54:24;9.40;;;7.57;;
9918;SDS011;4998;51.024;13.828;2023-05-07T04:56:51;8.83;;;7.60;;
9918;SDS011;4998;51.024;13.828;2023-05-07T04:59:18;9.80;;;7.70;;
9918;SDS011;4998;51.024;13.828;2023-05-07T05:01:45;11.20;;;7.53;;
9918;SDS011;4998;51.024;13.828;2023-05-07T05:04:12;9.97;;;8.10;;
9918;SDS011;4998;51.024;13.828;2023-05-07T05:06:41;10.10;;;8.30;;
9918;SDS011;4998;51.024;13.828;2023-05-07T05:09:07;9.10;;;7.73;;
9918;SDS011;4998;51.024;13.828;2023-05-07T05:11:34;11.03;;;8.10;;
9918;SDS011;4998;51.024;13.828;2023-05-07T05:14:01;11.23;;;8.10;;
9918;SDS011;4998;51.024;13.828;2023-05-07T05:16:28;8.90;;;7.67;;
9918;SDS011;4998;51.024;13.828;2023-05-07T05:18:55;9.63;;;8.33;;
9918;SDS011;4998;51.024;13.828;2023-05-07T05:21:22;9.47;;;7.80;;
9918;SDS011;4998;51.024;13.828;2023-05-07T05:23:51;11.10;;;8.50;;
9918;SDS011;4998;51.024;13.828;2023-05-07T05:26:18;8.50;;;7.30;;
9918;SDS011;4998;51.024;13.828;2023-05-07T05:28:46;10.43;;;8.10;;
9918;SDS011;4998;51.024;13.828;2023-05-07T05:31:13;10.03;;;7.27;;
9918;SDS011;4998;51.024;13.828;2023-05-07T05:33:40;9.13;;;7.70;;
9918;SDS011;4998;51.024;13.828;2023-05-07T05:36:09;11.77;;;8.80;;
9918;SDS011;4998;51.024;13.828;2023-05-07T05:38:37;10.00;;;8.50;;
9918;SDS011;4998;51.024;13.828;2023-05-07T05:41:05;9.10;;;7.70;;
9918;SDS011;4998;51.024;13.828;2023-05-07T05:43:32;9.60;;;8.00;;
9918;SDS011;4998;51.024;13.828;2023-05-07T05:45:59;8.93;;;7.83;;
9918;SDS011;4998;51.024;13.828;2023-05-07T05:48:26;11.37;;;8.93;;
9918;SDS011;4998;51.024;13.828;2023-05-07T05:50:54;8.80;;;7.53;;
9918;SDS011;4998;51.024;13.828;2023-05-07T05:53:21;8.63;;;7.40;;
9918;SDS011;4998;51.024;13.828;2023-05-07T05:55:49;9.27;;;7.27;;
9918;SDS011;4998;51.024;13.828;2023-05-07T05:58:17;9.27;;;7.67;;
9918;SDS011;4998;51.024;13.828;2023-05-07T06:00:45;6.47;;;5.80;;
9918;SDS011;4998;51.024;13.828;2023-05-07T06:03:13;9.57;;;6.97;;
9918;SDS011;4998;51.024;13.828;2023-05-07T06:05:40;7.60;;;6.23;;
9918;SDS011;4998;51.024;13.828;2023-05-07T06:08:07;6.93;;;6.23;;
9918;SDS011;4998;51.024;13.828;2023-05-07T06:10:35;6.90;;;6.03;;
9918;SDS011;4998;51.024;13.828;2023-05-07T06:13:02;9.20;;;6.53;;
9918;SDS011;4998;51.024;13.828;2023-05-07T06:15:31;7.50;;;6.03;;
9918;SDS011;4998;51.024;13.828;2023-05-07T06:17:58;8.30;;;6.33;;
9918;SDS011;4998;51.024;13.828;2023-05-07T06:20:25;7.00;;;5.83;;
9918;SDS011;4998;51.024;13.828;2023-05-07T06:22:52;6.27;;;5.57;;
9918;SDS011;4998;51.024;13.828;2023-05-07T06:25:19;7.07;;;6.37;;
9918;SDS011;4998;51.024;13.828;2023-05-07T06:27:46;6.40;;;5.30;;
9918;SDS011;4998;51.024;13.828;2023-05-07T06:30:13;6.43;;;5.77;;
9918;SDS011;4998;51.024;13.828;2023-05-07T06:32:41;6.03;;;5.20;;
9918;SDS011;4998;51.024;13.828;2023-05-07T06:35:08;5.50;;;4.70;;
9918;SDS011;4998;51.024;13.828;2023-05-07T06:37:35;5.53;;;4.50;;
9918;SDS011;4998;51.024;13.828;2023-05-07T06:40:04;5.20;;;4.70;;
9918;SDS011;4998;51.024;13.828;2023-05-07T06:42:32;4.60;;;4.20;;
9918;SDS011;4998;51.024;13.828;2023-05-07T06:44:59;6.00;;;4.73;;
9918;SDS011;4998;51.024;13.828;2023-05-07T06:47:26;5.67;;;5.10;;
9918;SDS011;4998;51.024;13.828;2023-05-07T06:49:54;6.30;;;5.33;;
9918;SDS011;4998;51.024;13.828;2023-05-07T06:52:21;5.80;;;4.77;;
9918;SDS011;4998;51.024;13.828;2023-05-07T06:54:48;5.37;;;4.90;;
9918;SDS011;4998;51.024;13.828;2023-05-07T06:57:15;5.40;;;4.90;;
9918;SDS011;4998;51.024;13.828;2023-05-07T06:59:42;6.20;;;5.37;;
9918;SDS011;4998;51.024;13.828;2023-05-07T07:02:09;4.93;;;4.43;;
9918;SDS011;4998;51.024;13.828;2023-05-07T07:04:36;5.27;;;4.77;;
9918;SDS011;4998;51.024;13.828;2023-05-07T07:07:04;5.63;;;4.83;;
9918;SDS011;4998;51.024;13.828;2023-05-07T07:09:31;5.90;;;5.13;;
9918;SDS011;4998;51.024;13.828;2023-05-07T07:11:58;4.70;;;4.30;;
9918;SDS011;4998;51.024;13.828;2023-05-07T07:14:25;6.43;;;5.00;;
9918;SDS011;4998;51.024;13.828;2023-05-07T07:16:52;6.50;;;4.97;;
9918;SDS011;4998;51.024;13.828;2023-05-07T07:19:19;5.27;;;4.80;;
9918;SDS011;4998;51.024;13.828;2023-05-07T07:21:46;5.20;;;4.70;;
9918;SDS011;4998;51.024;13.828;2023-05-07T07:24:14;4.90;;;4.50;;
9918;SDS011;4998;51.024;13.828;2023-05-07T07:26:46;4.93;;;4.50;;
9918;SDS011;4998;51.024;13.828;2023-05-07T07:29:13;5.17;;;4.50;;
9918;SDS011;4998;51.024;13.828;2023-05-07T07:31:40;5.37;;;4.20;;
9918;SDS011;4998;51.024;13.828;2023-05-07T07:34:07;4.53;;;4.13;;
9918;SDS011;4998;51.024;13.828;2023-05-07T07:36:34;4.23;;;3.83;;
9918;SDS011;4998;51.024;13.828;2023-05-07T07:39:01;4.27;;;3.87;;
9918;SDS011;4998;51.024;13.828;2023-05-07T07:41:29;3.73;;;3.43;;
9918;SDS011;4998;51.024;13.828;2023-05-07T07:43:56;3.97;;;3.57;;
9918;SDS011;4998;51.024;13.828;2023-05-07T07:46:23;3.63;;;3.33;;
9918;SDS011;4998;51.024;13.828;2023-05-07T07:48:51;3.53;;;3.33;;
9918;SDS011;4998;51.024;13.828;2023-05-07T07:51:19;3.63;;;3.33;;
9918;SDS011;4998;51.024;13.828;2023-05-07T07:53:46;3.90;;;3.50;;
9918;SDS011;4998;51.024;13.828;2023-05-07T07:56:13;3.33;;;3.10;;
9918;SDS011;4998;51.024;13.828;2023-05-07T07:58:41;3.10;;;2.90;;
9918;SDS011;4998;51.024;13.828;2023-05-07T08:01:08;3.10;;;2.83;;
9918;SDS011;4998;51.024;13.828;2023-05-07T08:03:37;3.50;;;3.20;;
9918;SDS011;4998;51.024;13.828;2023-05-07T08:06:04;3.20;;;2.93;;
9918;SDS011;4998;51.024;13.828;2023-05-07T08:08:31;3.20;;;3.00;;
9918;SDS011;4998;51.024;13.828;2023-05-07T08:10:58;3.40;;;3.20;;
9918;SDS011;4998;51.024;13.828;2023-05-07T08:13:25;3.37;;;3.17;;
9918;SDS011;4998;51.024;13.828;2023-05-07T08:15:53;3.10;;;2.90;;
9918;SDS011;4998;51.024;13.828;2023-05-07T08:18:20;3.27;;;3.00;;
9918;SDS011;4998;51.024;13.828;2023-05-07T08:20:49;2.90;;;2.70;;
9918;SDS011;4998;51.024;13.828;2023-05-07T08:23:16;3.90;;;3.00;;
9918;SDS011;4998;51.024;13.828;2023-05-07T08:25:43;3.00;;;2.80;;
9918;SDS011;4998;51.024;13.828;2023-05-07T08:28:10;2.83;;;2.70;;
9918;SDS011;4998;51.024;13.828;2023-05-07T08:30:37;4.50;;;3.00;;
9918;SDS011;4998;51.024;13.828;2023-05-07T08:33:05;2.80;;;2.60;;
9918;SDS011;4998;51.024;13.828;2023-05-07T08:35:34;2.90;;;2.70;;
9918;SDS011;4998;51.024;13.828;2023-05-07T08:38:01;2.97;;;2.77;;
9918;SDS011;4998;51.024;13.828;2023-05-07T08:40:28;4.70;;;3.60;;
9918;SDS011;4998;51.024;13.828;2023-05-07T08:42:58;3.73;;;3.43;;
9918;SDS011;4998;51.024;13.828;2023-05-07T08:45:27;3.60;;;3.10;;
9918;SDS011;4998;51.024;13.828;2023-05-07T08:47:58;3.70;;;3.40;;
9918;SDS011;4998;51.024;13.828;2023-05-07T08:50:29;3.67;;;3.37;;
9918;SDS011;4998;51.024;13.828;2023-05-07T08:52:56;3.87;;;3.53;;
9918;SDS011;4998;51.024;13.828;2023-05-07T08:55:25;4.00;;;3.60;;
9918;SDS011;4998;51.024;13.828;2023-05-07T08:57:52;4.37;;;3.90;;
9918;SDS011;4998;51.024;13.828;2023-05-07T09:00:19;4.53;;;4.07;;
9918;SDS011;4998;51.024;13.828;2023-05-07T09:02:46;4.40;;;4.00;;
9918;SDS011;4998;51.024;13.828;2023-05-07T09:05:13;4.63;;;4.23;;
9918;SDS011;4998;51.024;13.828;2023-05-07T09:07:41;4.93;;;4.20;;
9918;SDS011;4998;51.024;13.828;2023-05-07T09:10:09;4.17;;;3.83;;
9918;SDS011;4998;51.024;13.828;2023-05-07T09:12:36;4.57;;;4.17;;
9918;SDS011;4998;51.024;13.828;2023-05-07T09:15:04;6.43;;;4.93;;
9918;SDS011;4998;51.024;13.828;2023-05-07T09:17:32;4.57;;;4.17;;
9918;SDS011;4998;51.024;13.828;2023-05-07T09:20:01;5.67;;;4.73;;
9918;SDS011;4998;51.024;13.828;2023-05-07T09:22:31;5.17;;;4.70;;
9918;SDS011;4998;51.024;13.828;2023-05-07T09:24:59;4.93;;;4.40;;
9918;SDS011;4998;51.024;13.828;2023-05-07T09:27:26;5.47;;;4.83;;
9918;SDS011;4998;51.024;13.828;2023-05-07T09:29:53;5.00;;;4.60;;
9918;SDS011;4998;51.024;13.828;2023-05-07T09:32:21;5.70;;;5.20;;
9918;SDS011;4998;51.024;13.828;2023-05-07T09:34:48;4.73;;;4.30;;
9918;SDS011;4998;51.024;13.828;2023-05-07T09:37:15;5.07;;;4.57;;
9918;SDS011;4998;51.024;13.828;2023-05-07T09:39:43;4.80;;;4.40;;
9918;SDS011;4998;51.024;13.828;2023-05-07T09:42:12;4.70;;;4.30;;
9918;SDS011;4998;51.024;13.828;2023-05-07T09:44:40;3.90;;;3.60;;
9918;SDS011;4998;51.024;13.828;2023-05-07T09:47:07;3.97;;;3.67;;
9918;SDS011;4998;51.024;13.828;2023-05-07T09:49:35;4.43;;;4.10;;
9918;SDS011;4998;51.024;13.828;2023-05-07T09:52:03;4.00;;;3.60;;
9918;SDS011;4998;51.024;13.828;2023-05-07T09:54:34;4.70;;;4.30;;
9918;SDS011;4998;51.024;13.828;2023-05-07T09:57:03;5.27;;;4.57;;
9918;SDS011;4998;51.024;13.828;2023-05-07T09:59:33;4.87;;;4.47;;
9918;SDS011;4998;51.024;13.828;2023-05-07T10:02:03;6.30;;;4.53;;
9918;SDS011;4998;51.024;13.828;2023-05-07T10:04:31;5.40;;;4.90;;
9918;SDS011;4998;51.024;13.828;2023-05-07T10:06:58;4.80;;;4.40;;
9918;SDS011;4998;51.024;13.828;2023-05-07T10:09:26;4.90;;;4.40;;
9918;SDS011;4998;51.024;13.828;2023-05-07T10:11:53;5.10;;;4.70;;
9918;SDS011;4998;51.024;13.828;2023-05-07T10:14:21;5.20;;;4.80;;
9918;SDS011;4998;51.024;13.828;2023-05-07T10:16:49;5.30;;;4.80;;
9918;SDS011;4998;51.024;13.828;2023-05-07T10:19:17;5.07;;;4.50;;
9918;SDS011;4998;51.024;13.828;2023-05-07T10:21:48;5.83;;;4.57;;
9918;SDS011;4998;51.024;13.828;2023-05-07T10:24:23;5.50;;;5.00;;
9918;SDS011;4998;51.024;13.828;2023-05-07T10:26:53;5.10;;;4.63;;
9918;SDS011;4998;51.024;13.828;2023-05-07T10:29:25;5.30;;;4.80;;
9918;SDS011;4998;51.024;13.828;2023-05-07T10:32:03;4.83;;;4.43;;
9918;SDS011;4998;51.024;13.828;2023-05-07T10:34:53;5.20;;;4.70;;
9918;SDS011;4998;51.024;13.828;2023-05-07T10:37:22;5.00;;;4.50;;
9918;SDS011;4998;51.024;13.828;2023-05-07T10:39:50;4.63;;;4.23;;
9918;SDS011;4998;51.024;13.828;2023-05-07T10:42:18;4.90;;;4.50;;
9918;SDS011;4998;51.024;13.828;2023-05-07T10:44:45;5.20;;;4.80;;
9918;SDS011;4998;51.024;13.828;2023-05-07T10:47:14;4.90;;;4.50;;
9918;SDS011;4998;51.024;13.828;2023-05-07T10:58:53;6.00;;;5.47;;
9918;SDS011;4998;51.024;13.828;2023-05-07T11:04:19;4.53;;;4.20;;
9918;SDS011;4998;51.024;13.828;2023-05-07T11:10:02;4.77;;;4.37;;
9918;SDS011;4998;51.024;13.828;2023-05-07T11:15:33;13.87;;;12.37;;
9918;SDS011;4998;51.024;13.828;2023-05-07T11:18:01;10.43;;;7.90;;
9918;SDS011;4998;51.024;13.828;2023-05-07T11:20:47;5.67;;;5.17;;
9918;SDS011;4998;51.024;13.828;2023-05-07T11:26:27;4.90;;;4.50;;
9918;SDS011;4998;51.024;13.828;2023-05-07T11:28:56;4.60;;;4.20;;
9918;SDS011;4998;51.024;13.828;2023-05-07T11:31:26;5.00;;;4.60;;
9918;SDS011;4998;51.024;13.828;2023-05-07T11:33:55;5.00;;;4.60;;
9918;SDS011;4998;51.024;13.828;2023-05-07T11:36:24;5.03;;;4.53;;
9918;SDS011;4998;51.024;13.828;2023-05-07T11:38:52;5.03;;;4.60;;
9918;SDS011;4998;51.024;13.828;2023-05-07T11:41:19;4.67;;;4.27;;
9918;SDS011;4998;51.024;13.828;2023-05-07T11:43:53;4.70;;;4.33;;
9918;SDS011;4998;51.024;13.828;2023-05-07T11:46:24;4.87;;;4.53;;
9918;SDS011;4998;51.024;13.828;2023-05-07T11:48:53;8.20;;;7.40;;
9918;SDS011;4998;51.024;13.828;2023-05-07T11:51:20;10.23;;;9.20;;
9918;SDS011;4998;51.024;13.828;2023-05-07T11:53:50;6.20;;;5.60;;
9918;SDS011;4998;51.024;13.828;2023-05-07T11:56:17;5.13;;;4.73;;
9918;SDS011;4998;51.024;13.828;2023-05-07T11:58:45;4.73;;;4.33;;
9918;SDS011;4998;51.024;13.828;2023-05-07T12:01:14;4.60;;;4.20;;
9918;SDS011;4998;51.024;13.828;2023-05-07T12:03:42;5.03;;;4.53;;
9918;SDS011;4998;51.024;13.828;2023-05-07T12:06:11;4.70;;;4.20;;
9918;SDS011;4998;51.024;13.828;2023-05-07T12:08:40;5.13;;;4.70;;
9918;SDS011;4998;51.024;13.828;2023-05-07T12:11:10;8.10;;;7.07;;
9918;SDS011;4998;51.024;13.828;2023-05-07T12:13:40;18.57;;;16.00;;
9918;SDS011;4998;51.024;13.828;2023-05-07T12:16:08;11.17;;;7.67;;
9918;SDS011;4998;51.024;13.828;2023-05-07T12:18:35;6.20;;;5.60;;
9918;SDS011;4998;51.024;13.828;2023-05-07T12:21:04;6.30;;;5.17;;
9918;SDS011;4998;51.024;13.828;2023-05-07T12:23:32;6.47;;;4.60;;
9918;SDS011;4998;51.024;13.828;2023-05-07T12:26:00;5.40;;;4.90;;
9918;SDS011;4998;51.024;13.828;2023-05-07T12:28:30;4.93;;;4.53;;
9918;SDS011;4998;51.024;13.828;2023-05-07T12:30:57;6.30;;;4.50;;
9918;SDS011;4998;51.024;13.828;2023-05-07T12:33:25;4.27;;;3.97;;
9918;SDS011;4998;51.024;13.828;2023-05-07T12:35:54;8.27;;;7.47;;
9918;SDS011;4998;51.024;13.828;2023-05-07T12:38:22;6.70;;;6.10;;
9918;SDS011;4998;51.024;13.828;2023-05-07T12:40:49;5.03;;;4.60;;
9918;SDS011;4998;51.024;13.828;2023-05-07T12:43:20;4.77;;;4.40;;
9918;SDS011;4998;51.024;13.828;2023-05-07T12:45:53;4.60;;;4.20;;
9918;SDS011;4998;51.024;13.828;2023-05-07T12:48:22;4.37;;;4.07;;
9918;SDS011;4998;51.024;13.828;2023-05-07T12:50:52;4.23;;;3.83;;
9918;SDS011;4998;51.024;13.828;2023-05-07T12:53:20;6.07;;;4.37;;
9918;SDS011;4998;51.024;13.828;2023-05-07T12:55:49;4.00;;;3.70;;
9918;SDS011;4998;51.024;13.828;2023-05-07T12:58:17;5.50;;;3.90;;
9918;SDS011;4998;51.024;13.828;2023-05-07T13:00:47;6.03;;;4.07;;
9918;SDS011;4998;51.024;13.828;2023-05-07T13:03:23;5.67;;;4.63;;
9918;SDS011;4998;51.024;13.828;2023-05-07T13:05:51;4.60;;;4.20;;
9918;SDS011;4998;51.024;13.828;2023-05-07T13:08:31;4.57;;;4.17;;
9918;SDS011;4998;51.024;13.828;2023-05-07T13:10:59;4.77;;;4.37;;
9918;SDS011;4998;51.024;13.828;2023-05-07T13:13:28;4.10;;;3.80;;
9918;SDS011;4998;51.024;13.828;2023-05-07T13:15:55;4.30;;;4.00;;
9918;SDS011;4998;51.024;13.828;2023-05-07T13:18:25;4.47;;;4.17;;
9918;SDS011;4998;51.024;13.828;2023-05-07T13:20:52;4.20;;;3.80;;
9918;SDS011;4998;51.024;13.828;2023-05-07T13:23:19;4.87;;;4.20;;
9918;SDS011;4998;51.024;13.828;2023-05-07T13:25:47;4.30;;;3.90;;
9918;SDS011;4998;51.024;13.828;2023-05-07T13:28:14;4.10;;;3.80;;
9918;SDS011;4998;51.024;13.828;2023-05-07T13:30:41;3.70;;;3.50;;
9918;SDS011;4998;51.024;13.828;2023-05-07T13:33:08;4.00;;;3.70;;
9918;SDS011;4998;51.024;13.828;2023-05-07T13:35:37;4.90;;;4.07;;
9918;SDS011;4998;51.024;13.828;2023-05-07T13:38:04;3.90;;;3.60;;
9918;SDS011;4998;51.024;13.828;2023-05-07T13:40:31;3.80;;;3.50;;
9918;SDS011;4998;51.024;13.828;2023-05-07T13:42:58;3.50;;;3.30;;
9918;SDS011;4998;51.024;13.828;2023-05-07T13:45:27;3.93;;;3.60;;
9918;SDS011;4998;51.024;13.828;2023-05-07T13:47:54;3.70;;;3.50;;
9918;SDS011;4998;51.024;13.828;2023-05-07T13:50:22;4.00;;;3.70;;
9918;SDS011;4998;51.024;13.828;2023-05-07T13:52:50;3.87;;;3.57;;
9918;SDS011;4998;51.024;13.828;2023-05-07T13:55:17;4.50;;;4.07;;
9918;SDS011;4998;51.024;13.828;2023-05-07T13:57:44;3.43;;;3.13;;
9918;SDS011;4998;51.024;13.828;2023-05-07T14:00:12;3.33;;;3.13;;
9918;SDS011;4998;51.024;13.828;2023-05-07T14:02:41;3.60;;;3.30;;
9918;SDS011;4998;51.024;13.828;2023-05-07T14:05:08;3.57;;;3.27;;
9918;SDS011;4998;51.024;13.828;2023-05-07T14:07:36;3.10;;;2.90;;
9918;SDS011;4998;51.024;13.828;2023-05-07T14:10:05;4.53;;;3.10;;
9918;SDS011;4998;51.024;13.828;2023-05-07T14:12:32;3.10;;;2.90;;
9918;SDS011;4998;51.024;13.828;2023-05-07T14:14:59;2.80;;;2.60;;
9918;SDS011;4998;51.024;13.828;2023-05-07T14:17:26;3.53;;;2.57;;
9918;SDS011;4998;51.024;13.828;2023-05-07T14:19:54;3.17;;;2.87;;
9918;SDS011;4998;51.024;13.828;2023-05-07T14:22:21;2.83;;;2.63;;
9918;SDS011;4998;51.024;13.828;2023-05-07T14:24:48;4.00;;;2.70;;
9918;SDS011;4998;51.024;13.828;2023-05-07T14:27:17;3.07;;;2.87;;
9918;SDS011;4998;51.024;13.828;2023-05-07T14:29:44;3.50;;;2.67;;
9918;SDS011;4998;51.024;13.828;2023-05-07T14:32:16;2.47;;;2.33;;
9918;SDS011;4998;51.024;13.828;2023-05-07T14:34:43;2.40;;;2.20;;
9918;SDS011;4998;51.024;13.828;2023-05-07T14:37:10;6.00;;;2.30;;
9918;SDS011;4998;51.024;13.828;2023-05-07T14:39:37;2.40;;;2.30;;
9918;SDS011;4998;51.024;13.828;2023-05-07T14:42:04;2.90;;;2.70;;
9918;SDS011;4998;51.024;13.828;2023-05-07T14:44:34;2.73;;;2.53;;
9918;SDS011;4998;51.024;13.828;2023-05-07T14:47:01;2.60;;;2.50;;
9918;SDS011;4998;51.024;13.828;2023-05-07T14:49:28;2.63;;;2.43;;
9918;SDS011;4998;51.024;13.828;2023-05-07T14:51:56;2.87;;;2.67;;
9918;SDS011;4998;51.024;13.828;2023-05-07T14:54:24;3.00;;;2.60;;
9918;SDS011;4998;51.024;13.828;2023-05-07T14:56:51;3.10;;;2.90;;
9918;SDS011;4998;51.024;13.828;2023-05-07T14:59:18;3.20;;;3.00;;
9918;SDS011;4998;51.024;13.828;2023-05-07T15:01:47;3.50;;;3.30;;
9918;SDS011;4998;51.024;13.828;2023-05-07T15:04:14;3.60;;;3.07;;
9918;SDS011;4998;51.024;13.828;2023-05-07T15:06:41;3.80;;;3.10;;
9918;SDS011;4998;51.024;13.828;2023-05-07T15:09:08;3.10;;;2.90;;
9918;SDS011;4998;51.024;13.828;2023-05-07T15:11:35;4.90;;;3.50;;
9918;SDS011;4998;51.024;13.828;2023-05-07T15:14:03;3.20;;;2.97;;
9918;SDS011;4998;51.024;13.828;2023-05-07T15:16:29;3.20;;;2.93;;
9918;SDS011;4998;51.024;13.828;2023-05-07T15:18:59;3.83;;;3.33;;
9918;SDS011;4998;51.024;13.828;2023-05-07T15:21:26;4.10;;;3.70;;